sensor_id;sensor_type;location;lat;lon;timestamp;pressure;altitude;pressure_sealevel;temperature;humidity
63096;BME280;49184;55.596;37.770;2023-07-30T00:00:56;98639.59;;;16.47;81.16
63096;BME280;49184;55.596;37.770;2023-07-30T00:03:22;98594.78;;;16.53;80.20
63096;BME280;49184;55.596;37.770;2023-07-30T00:05:53;98643.44;;;16.88;79.90
63096;BME280;49184;55.596;37.770;2023-07-30T00:08:19;98630.88;;;17.21;78.78
63096;BME280;49184;55.596;37.770;2023-07-30T00:10:45;98650.31;;;17.28;78.47
63096;BME280;49184;55.596;37.770;2023-07-30T00:13:11;98631.88;;;17.35;78.36
63096;BME280;49184;55.596;37.770;2023-07-30T00:15:37;98635.66;;;17.24;78.73
63096;BME280;49184;55.596;37.770;2023-07-30T00:18:03;98640.38;;;17.53;77.55
63096;BME280;49184;55.596;37.770;2023-07-30T00:20:29;98647.97;;;17.60;77.74
63096;BME280;49184;55.596;37.770;2023-07-30T00:22:55;98635.09;;;17.41;78.27
63096;BME280;49184;55.596;37.770;2023-07-30T00:25:22;98643.81;;;17.43;78.26
63096;BME280;49184;55.596;37.770;2023-07-30T00:27:48;98641.31;;;17.34;78.19
63096;BME280;49184;55.596;37.770;2023-07-30T00:30:14;98638.06;;;17.55;77.86
63096;BME280;49184;55.596;37.770;2023-07-30T00:32:40;98626.06;;;17.44;77.15
63096;BME280;49184;55.596;37.770;2023-07-30T00:35:12;98623.78;;;17.50;77.63
63096;BME280;49184;55.596;37.770;2023-07-30T00:37:38;98630.63;;;17.63;76.60
63096;BME280;49184;55.596;37.770;2023-07-30T00:40:04;98630.47;;;17.49;76.71
63096;BME280;49184;55.596;37.770;2023-07-30T00:42:31;98627.66;;;17.45;77.08
63096;BME280;49184;55.596;37.770;2023-07-30T00:44:57;98620.97;;;17.46;76.81
63096;BME280;49184;55.596;37.770;2023-07-30T00:47:23;98627.84;;;17.59;76.79
63096;BME280;49184;55.596;37.770;2023-07-30T00:49:50;98639.09;;;17.44;77.17
63096;BME280;49184;55.596;37.770;2023-07-30T00:52:18;98635.22;;;17.48;77.35
63096;BME280;49184;55.596;37.770;2023-07-30T00:54:44;98628.91;;;17.51;76.88
63096;BME280;49184;55.596;37.770;2023-07-30T00:57:11;98654.44;;;17.41;77.70
63096;BME280;49184;55.596;37.770;2023-07-30T00:59:37;98631.41;;;17.30;78.37
63096;BME280;49184;55.596;37.770;2023-07-30T01:02:04;98627.84;;;17.29;77.54
63096;BME280;49184;55.596;37.770;2023-07-30T01:04:30;98628.91;;;17.21;77.41
63096;BME280;49184;55.596;37.770;2023-07-30T01:06:56;98626.16;;;17.21;78.37
63096;BME280;49184;55.596;37.770;2023-07-30T01:09:22;98629.63;;;17.14;77.95
63096;BME280;49184;55.596;37.770;2023-07-30T01:11:49;98607.22;;;17.20;77.09
63096;BME280;49184;55.596;37.770;2023-07-30T01:14:16;98619.03;;;17.20;76.75
63096;BME280;49184;55.596;37.770;2023-07-30T01:16:42;98623.81;;;17.23;77.56
63096;BME280;49184;55.596;37.770;2023-07-30T01:19:09;98602.66;;;17.04;77.37
63096;BME280;49184;55.596;37.770;2023-07-30T01:21:36;98598.97;;;16.93;77.02
63096;BME280;49184;55.596;37.770;2023-07-30T01:24:02;98641.41;;;17.11;77.26
63096;BME280;49184;55.596;37.770;2023-07-30T01:26:43;98637.06;;;17.10;77.13
63096;BME280;49184;55.596;37.770;2023-07-30T01:29:51;98636.72;;;17.12;77.95
63096;BME280;49184;55.596;37.770;2023-07-30T01:32:20;98633.63;;;16.90;77.42
63096;BME280;49184;55.596;37.770;2023-07-30T01:34:52;98635.16;;;16.88;77.64
63096;BME280;49184;55.596;37.770;2023-07-30T01:37:19;98616.84;;;16.53;79.00
63096;BME280;49184;55.596;37.770;2023-07-30T01:39:48;98626.34;;;16.79;78.57
63096;BME280;49184;55.596;37.770;2023-07-30T01:42:15;98638.13;;;17.02;78.43
63096;BME280;49184;55.596;37.770;2023-07-30T01:44:41;98612.47;;;17.02;76.76
63096;BME280;49184;55.596;37.770;2023-07-30T01:47:07;98610.69;;;16.86;77.39
63096;BME280;49184;55.596;37.770;2023-07-30T01:49:33;98638.34;;;16.90;77.71
63096;BME280;49184;55.596;37.770;2023-07-30T01:51:59;98626.28;;;16.75;78.00
63096;BME280;49184;55.596;37.770;2023-07-30T01:54:26;98626.88;;;16.88;78.10
63096;BME280;49184;55.596;37.770;2023-07-30T01:56:54;98619.84;;;16.67;78.27
63096;BME280;49184;55.596;37.770;2023-07-30T01:59:20;98646.53;;;16.83;78.56
63096;BME280;49184;55.596;37.770;2023-07-30T02:01:46;98624.66;;;16.74;78.26
63096;BME280;49184;55.596;37.770;2023-07-30T02:04:12;98604.94;;;16.72;78.01
63096;BME280;49184;55.596;37.770;2023-07-30T02:06:38;98621.63;;;16.79;78.21
63096;BME280;49184;55.596;37.770;2023-07-30T02:09:04;98615.13;;;16.95;78.40
63096;BME280;49184;55.596;37.770;2023-07-30T02:11:30;98634.19;;;17.03;77.68
63096;BME280;49184;55.596;37.770;2023-07-30T02:13:56;98616.38;;;16.97;77.40
63096;BME280;49184;55.596;37.770;2023-07-30T02:16:21;98605.44;;;16.78;76.91
63096;BME280;49184;55.596;37.770;2023-07-30T02:18:47;98629.53;;;16.81;77.80
63096;BME280;49184;55.596;37.770;2023-07-30T02:21:13;98628.31;;;16.78;78.20
63096;BME280;49184;55.596;37.770;2023-07-30T02:23:39;98629.91;;;16.79;77.82
63096;BME280;49184;55.596;37.770;2023-07-30T02:26:05;98612.66;;;16.86;77.34
63096;BME280;49184;55.596;37.770;2023-07-30T02:28:31;98628.19;;;16.98;77.68
63096;BME280;49184;55.596;37.770;2023-07-30T02:30:57;98610.63;;;16.83;77.44
63096;BME280;49184;55.596;37.770;2023-07-30T02:33:23;98624.28;;;16.99;77.94
63096;BME280;49184;55.596;37.770;2023-07-30T02:35:49;98598.91;;;16.89;76.94
63096;BME280;49184;55.596;37.770;2023-07-30T02:38:15;98651.50;;;17.57;77.09
63096;BME280;49184;55.596;37.770;2023-07-30T02:40:41;98630.22;;;17.61;77.07
63096;BME280;49184;55.596;37.770;2023-07-30T02:43:07;98628.38;;;17.72;74.73
63096;BME280;49184;55.596;37.770;2023-07-30T02:45:33;98643.44;;;18.08;74.30
63096;BME280;49184;55.596;37.770;2023-07-30T02:47:59;98611.69;;;17.61;74.04
63096;BME280;49184;55.596;37.770;2023-07-30T02:50:25;98649.63;;;17.98;73.85
63096;BME280;49184;55.596;37.770;2023-07-30T02:52:51;98634.94;;;18.28;73.65
63096;BME280;49184;55.596;37.770;2023-07-30T02:55:17;98628.97;;;18.26;72.71
63096;BME280;49184;55.596;37.770;2023-07-30T02:57:44;98650.88;;;18.45;72.65
63096;BME280;49184;55.596;37.770;2023-07-30T03:00:12;98654.91;;;18.51;72.11
63096;BME280;49184;55.596;37.770;2023-07-30T03:02:39;98660.81;;;18.53;72.17
63096;BME280;49184;55.596;37.770;2023-07-30T03:05:05;98659.75;;;18.65;71.18
63096;BME280;49184;55.596;37.770;2023-07-30T03:07:31;98647.69;;;18.43;72.15
63096;BME280;49184;55.596;37.770;2023-07-30T03:09:57;98653.09;;;18.29;71.92
63096;BME280;49184;55.596;37.770;2023-07-30T03:12:23;98654.28;;;18.28;72.02
63096;BME280;49184;55.596;37.770;2023-07-30T03:14:49;98640.56;;;18.42;72.64
63096;BME280;49184;55.596;37.770;2023-07-30T03:17:15;98631.47;;;18.38;72.68
63096;BME280;49184;55.596;37.770;2023-07-30T03:19:41;98635.56;;;18.55;71.57
63096;BME280;49184;55.596;37.770;2023-07-30T03:22:07;98654.75;;;18.78;70.66
63096;BME280;49184;55.596;37.770;2023-07-30T03:24:33;98653.22;;;18.84;71.27
63096;BME280;49184;55.596;37.770;2023-07-30T03:26:59;98655.19;;;18.87;70.52
63096;BME280;49184;55.596;37.770;2023-07-30T03:29:26;98650.03;;;18.82;70.53
63096;BME280;49184;55.596;37.770;2023-07-30T03:31:52;98657.63;;;18.96;69.18
63096;BME280;49184;55.596;37.770;2023-07-30T03:34:19;98667.38;;;18.75;70.04
63096;BME280;49184;55.596;37.770;2023-07-30T03:36:45;98661.56;;;18.91;70.84
63096;BME280;49184;55.596;37.770;2023-07-30T03:39:11;98665.91;;;18.89;70.25
63096;BME280;49184;55.596;37.770;2023-07-30T03:41:37;98658.44;;;18.96;69.00
63096;BME280;49184;55.596;37.770;2023-07-30T03:44:03;98657.97;;;18.87;68.31
63096;BME280;49184;55.596;37.770;2023-07-30T03:46:29;98654.31;;;18.76;69.93
63096;BME280;49184;55.596;37.770;2023-07-30T03:48:55;98666.66;;;19.44;68.84
63096;BME280;49184;55.596;37.770;2023-07-30T03:51:22;98666.94;;;19.25;66.59
63096;BME280;49184;55.596;37.770;2023-07-30T03:53:49;98669.16;;;19.01;68.31
63096;BME280;49184;55.596;37.770;2023-07-30T03:56:15;98686.16;;;19.04;68.52
63096;BME280;49184;55.596;37.770;2023-07-30T03:58:41;98665.38;;;19.28;68.21
63096;BME280;49184;55.596;37.770;2023-07-30T04:01:07;98691.63;;;19.48;66.90
63096;BME280;49184;55.596;37.770;2023-07-30T04:03:34;98669.09;;;19.60;67.72
63096;BME280;49184;55.596;37.770;2023-07-30T04:06:00;98691.25;;;19.57;65.76
63096;BME280;49184;55.596;37.770;2023-07-30T04:08:26;98697.75;;;19.86;66.09
63096;BME280;49184;55.596;37.770;2023-07-30T04:10:52;98663.22;;;19.69;65.74
63096;BME280;49184;55.596;37.770;2023-07-30T04:13:18;98672.75;;;19.79;64.66
63096;BME280;49184;55.596;37.770;2023-07-30T04:15:47;98675.00;;;19.55;65.19
63096;BME280;49184;55.596;37.770;2023-07-30T04:18:13;98690.97;;;19.76;66.55
63096;BME280;49184;55.596;37.770;2023-07-30T04:20:39;98684.31;;;19.99;65.38
63096;BME280;49184;55.596;37.770;2023-07-30T04:23:05;98677.53;;;19.78;65.16
63096;BME280;49184;55.596;37.770;2023-07-30T04:25:31;98684.66;;;19.83;64.80
63096;BME280;49184;55.596;37.770;2023-07-30T04:27:57;98699.84;;;20.21;65.14
63096;BME280;49184;55.596;37.770;2023-07-30T04:30:23;98665.69;;;20.03;65.51
63096;BME280;49184;55.596;37.770;2023-07-30T04:32:49;98703.06;;;20.27;64.06
63096;BME280;49184;55.596;37.770;2023-07-30T04:35:16;98683.19;;;20.07;65.48
63096;BME280;49184;55.596;37.770;2023-07-30T04:37:42;98694.66;;;20.09;65.09
63096;BME280;49184;55.596;37.770;2023-07-30T04:40:08;98699.00;;;19.99;64.91
63096;BME280;49184;55.596;37.770;2023-07-30T04:42:35;98712.91;;;20.10;65.64
63096;BME280;49184;55.596;37.770;2023-07-30T04:45:01;98701.84;;;20.24;64.21
63096;BME280;49184;55.596;37.770;2023-07-30T04:47:30;98703.81;;;20.20;62.97
63096;BME280;49184;55.596;37.770;2023-07-30T04:49:56;98699.44;;;20.15;63.69
63096;BME280;49184;55.596;37.770;2023-07-30T04:52:22;98703.78;;;20.13;63.74
63096;BME280;49184;55.596;37.770;2023-07-30T04:54:48;98717.78;;;20.56;64.21
63096;BME280;49184;55.596;37.770;2023-07-30T04:57:14;98699.97;;;20.57;63.46
63096;BME280;49184;55.596;37.770;2023-07-30T04:59:40;98718.19;;;20.69;62.87
63096;BME280;49184;55.596;37.770;2023-07-30T05:02:06;98718.63;;;20.67;62.98
63096;BME280;49184;55.596;37.770;2023-07-30T05:04:33;98730.50;;;20.68;62.50
63096;BME280;49184;55.596;37.770;2023-07-30T05:06:59;98717.41;;;20.54;63.17
63096;BME280;49184;55.596;37.770;2023-07-30T05:09:25;98699.06;;;20.13;62.36
63096;BME280;49184;55.596;37.770;2023-07-30T05:11:52;98741.50;;;20.32;62.52
63096;BME280;49184;55.596;37.770;2023-07-30T05:14:18;98729.94;;;20.08;63.61
63096;BME280;49184;55.596;37.770;2023-07-30T05:16:44;98714.94;;;20.20;63.42
63096;BME280;49184;55.596;37.770;2023-07-30T05:19:10;98722.09;;;20.35;62.38
63096;BME280;49184;55.596;37.770;2023-07-30T05:21:36;98732.41;;;20.38;63.45
63096;BME280;49184;55.596;37.770;2023-07-30T05:24:02;98734.81;;;20.44;62.14
63096;BME280;49184;55.596;37.770;2023-07-30T05:26:29;98719.00;;;20.73;62.67
63096;BME280;49184;55.596;37.770;2023-07-30T05:28:55;98746.75;;;20.69;61.05
63096;BME280;49184;55.596;37.770;2023-07-30T05:31:21;98701.41;;;20.15;62.21
63096;BME280;49184;55.596;37.770;2023-07-30T05:33:47;98697.84;;;20.11;63.77
63096;BME280;49184;55.596;37.770;2023-07-30T05:36:14;98739.16;;;20.41;62.91
63096;BME280;49184;55.596;37.770;2023-07-30T05:38:41;98721.28;;;20.24;62.39
63096;BME280;49184;55.596;37.770;2023-07-30T05:41:08;98696.66;;;20.23;62.80
63096;BME280;49184;55.596;37.770;2023-07-30T05:43:34;98696.97;;;19.89;62.42
63096;BME280;49184;55.596;37.770;2023-07-30T05:46:01;98708.41;;;19.77;63.38
63096;BME280;49184;55.596;37.770;2023-07-30T05:48:27;98717.53;;;19.74;64.04
63096;BME280;49184;55.596;37.770;2023-07-30T05:50:53;98710.06;;;19.88;63.62
63096;BME280;49184;55.596;37.770;2023-07-30T05:53:19;98701.31;;;19.86;63.21
63096;BME280;49184;55.596;37.770;2023-07-30T05:55:45;98695.38;;;19.88;63.83
63096;BME280;49184;55.596;37.770;2023-07-30T05:58:11;98697.22;;;19.62;63.75
63096;BME280;49184;55.596;37.770;2023-07-30T06:00:37;98708.88;;;19.97;65.44
63096;BME280;49184;55.596;37.770;2023-07-30T06:03:03;98727.63;;;20.35;64.65
63096;BME280;49184;55.596;37.770;2023-07-30T06:05:31;98706.63;;;20.45;62.66
63096;BME280;49184;55.596;37.770;2023-07-30T06:07:59;98719.44;;;20.93;63.22
63096;BME280;49184;55.596;37.770;2023-07-30T06:10:25;98705.13;;;21.05;62.55
63096;BME280;49184;55.596;37.770;2023-07-30T06:12:51;98716.59;;;21.28;61.54
63096;BME280;49184;55.596;37.770;2023-07-30T06:15:17;98715.81;;;21.31;62.02
63096;BME280;49184;55.596;37.770;2023-07-30T06:17:47;98732.09;;;21.40;61.75
63096;BME280;49184;55.596;37.770;2023-07-30T06:20:19;98692.38;;;21.32;60.92
63096;BME280;49184;55.596;37.770;2023-07-30T06:22:45;98691.94;;;21.55;60.02
63096;BME280;49184;55.596;37.770;2023-07-30T06:25:11;98728.47;;;21.61;60.07
63096;BME280;49184;55.596;37.770;2023-07-30T06:27:36;98726.94;;;21.46;60.52
63096;BME280;49184;55.596;37.770;2023-07-30T06:30:05;98690.41;;;21.08;60.05
63096;BME280;49184;55.596;37.770;2023-07-30T06:32:31;98730.13;;;21.26;59.82
63096;BME280;49184;55.596;37.770;2023-07-30T06:34:59;98722.16;;;21.50;59.91
63096;BME280;49184;55.596;37.770;2023-07-30T06:37:25;98705.50;;;21.35;60.14
63096;BME280;49184;55.596;37.770;2023-07-30T06:39:51;98693.16;;;21.51;60.77
63096;BME280;49184;55.596;37.770;2023-07-30T06:42:17;98703.81;;;21.74;59.56
63096;BME280;49184;55.596;37.770;2023-07-30T06:44:43;98691.13;;;21.66;59.43
63096;BME280;49184;55.596;37.770;2023-07-30T06:47:09;98693.44;;;21.81;59.59
63096;BME280;49184;55.596;37.770;2023-07-30T06:49:34;98698.13;;;22.06;59.13
63096;BME280;49184;55.596;37.770;2023-07-30T06:52:01;98717.13;;;22.29;58.80
63096;BME280;49184;55.596;37.770;2023-07-30T06:54:29;98713.88;;;22.38;58.41
63096;BME280;49184;55.596;37.770;2023-07-30T06:56:55;98702.50;;;22.03;57.90
63096;BME280;49184;55.596;37.770;2023-07-30T06:59:21;98693.34;;;22.03;58.81
63096;BME280;49184;55.596;37.770;2023-07-30T07:01:47;98707.63;;;22.19;58.58
63096;BME280;49184;55.596;37.770;2023-07-30T07:04:13;98688.56;;;22.03;58.65
63096;BME280;49184;55.596;37.770;2023-07-30T07:06:40;98694.53;;;22.09;58.62
63096;BME280;49184;55.596;37.770;2023-07-30T07:09:06;98708.03;;;22.07;58.27
63096;BME280;49184;55.596;37.770;2023-07-30T07:11:32;98663.53;;;22.03;57.00
63096;BME280;49184;55.596;37.770;2023-07-30T07:13:58;98703.22;;;22.18;57.68
63096;BME280;49184;55.596;37.770;2023-07-30T07:16:24;98689.25;;;22.33;56.60
63096;BME280;49184;55.596;37.770;2023-07-30T07:18:50;98689.09;;;22.54;57.30
63096;BME280;49184;55.596;37.770;2023-07-30T07:21:16;98688.94;;;22.75;57.23
63096;BME280;49184;55.596;37.770;2023-07-30T07:23:42;98693.59;;;22.93;56.07
63096;BME280;49184;55.596;37.770;2023-07-30T07:26:08;98685.94;;;23.04;54.71
63096;BME280;49184;55.596;37.770;2023-07-30T07:28:34;98675.19;;;23.03;55.63
63096;BME280;49184;55.596;37.770;2023-07-30T07:31:00;98701.00;;;23.10;54.88
63096;BME280;49184;55.596;37.770;2023-07-30T07:33:27;98704.59;;;23.11;55.07
63096;BME280;49184;55.596;37.770;2023-07-30T07:36:04;98679.66;;;22.89;54.05
63096;BME280;49184;55.596;37.770;2023-07-30T07:38:31;98690.91;;;22.79;55.38
63096;BME280;49184;55.596;37.770;2023-07-30T07:40:58;98682.72;;;22.54;56.42
63096;BME280;49184;55.596;37.770;2023-07-30T07:43:24;98682.34;;;22.55;55.96
63096;BME280;49184;55.596;37.770;2023-07-30T07:45:50;98692.31;;;22.52;55.66
63096;BME280;49184;55.596;37.770;2023-07-30T07:48:16;98687.22;;;22.37;55.89
63096;BME280;49184;55.596;37.770;2023-07-30T07:50:42;98684.34;;;22.51;55.60
63096;BME280;49184;55.596;37.770;2023-07-30T07:53:08;98701.25;;;22.82;53.79
63096;BME280;49184;55.596;37.770;2023-07-30T07:55:34;98681.66;;;22.89;56.38
63096;BME280;49184;55.596;37.770;2023-07-30T07:58:00;98677.47;;;23.15;55.45
63096;BME280;49184;55.596;37.770;2023-07-30T08:00:26;98699.56;;;22.91;53.03
63096;BME280;49184;55.596;37.770;2023-07-30T08:02:52;98679.97;;;22.50;56.07
63096;BME280;49184;55.596;37.770;2023-07-30T08:05:18;98679.03;;;22.67;54.39
63096;BME280;49184;55.596;37.770;2023-07-30T08:07:48;98680.50;;;22.86;55.08
63096;BME280;49184;55.596;37.770;2023-07-30T08:10:17;98709.56;;;22.85;51.43
63096;BME280;49184;55.596;37.770;2023-07-30T08:12:43;98668.41;;;22.55;55.48
63096;BME280;49184;55.596;37.770;2023-07-30T08:15:09;98705.00;;;22.57;53.39
63096;BME280;49184;55.596;37.770;2023-07-30T08:17:35;98686.69;;;22.56;54.11
63096;BME280;49184;55.596;37.770;2023-07-30T08:20:01;98691.47;;;22.56;53.65
63096;BME280;49184;55.596;37.770;2023-07-30T08:22:29;98682.84;;;22.39;54.83
63096;BME280;49184;55.596;37.770;2023-07-30T08:24:55;98681.22;;;22.38;54.17
63096;BME280;49184;55.596;37.770;2023-07-30T08:27:21;98685.53;;;22.54;56.25
63096;BME280;49184;55.596;37.770;2023-07-30T08:29:48;98697.03;;;22.59;53.15
63096;BME280;49184;55.596;37.770;2023-07-30T08:38:00;98706.69;;;23.41;53.26
63096;BME280;49184;55.596;37.770;2023-07-30T08:40:26;98698.19;;;23.55;52.68
63096;BME280;49184;55.596;37.770;2023-07-30T08:42:53;98696.75;;;23.78;51.44
63096;BME280;49184;55.596;37.770;2023-07-30T08:45:20;98705.50;;;23.80;50.38
63096;BME280;49184;55.596;37.770;2023-07-30T08:47:46;98674.97;;;23.96;51.29
63096;BME280;49184;55.596;37.770;2023-07-30T08:50:13;98684.13;;;23.97;49.03
63096;BME280;49184;55.596;37.770;2023-07-30T08:52:40;98706.69;;;24.44;49.85
63096;BME280;49184;55.596;37.770;2023-07-30T08:55:07;98657.69;;;23.78;47.20
63096;BME280;49184;55.596;37.770;2023-07-30T08:57:33;98694.56;;;23.58;48.42
63096;BME280;49184;55.596;37.770;2023-07-30T09:00:04;98672.69;;;23.53;49.76
63096;BME280;49184;55.596;37.770;2023-07-30T09:02:47;98674.69;;;23.53;50.44
63096;BME280;49184;55.596;37.770;2023-07-30T09:05:14;98669.53;;;23.85;51.56
63096;BME280;49184;55.596;37.770;2023-07-30T09:07:40;98690.56;;;23.94;48.40
63096;BME280;49184;55.596;37.770;2023-07-30T09:10:07;98674.25;;;23.92;50.25
63096;BME280;49184;55.596;37.770;2023-07-30T09:12:34;98703.72;;;24.24;48.17
63096;BME280;49184;55.596;37.770;2023-07-30T09:15:05;98701.69;;;24.28;50.99
63096;BME280;49184;55.596;37.770;2023-07-30T09:17:33;98702.28;;;24.43;48.08
63096;BME280;49184;55.596;37.770;2023-07-30T09:20:03;98707.41;;;24.48;48.38
63096;BME280;49184;55.596;37.770;2023-07-30T09:22:32;98700.94;;;24.24;50.68
63096;BME280;49184;55.596;37.770;2023-07-30T09:25:01;98694.19;;;24.21;50.97
63096;BME280;49184;55.596;37.770;2023-07-30T09:27:28;98685.16;;;24.10;48.98
63096;BME280;49184;55.596;37.770;2023-07-30T09:29:56;98716.16;;;24.19;51.29
63096;BME280;49184;55.596;37.770;2023-07-30T09:32:31;98691.50;;;24.14;50.66
63096;BME280;49184;55.596;37.770;2023-07-30T09:35:08;98698.56;;;24.22;48.68
63096;BME280;49184;55.596;37.770;2023-07-30T09:37:39;98682.13;;;24.01;48.05
63096;BME280;49184;55.596;37.770;2023-07-30T09:40:10;98704.44;;;24.31;50.81
63096;BME280;49184;55.596;37.770;2023-07-30T09:42:42;98698.06;;;24.31;50.77
63096;BME280;49184;55.596;37.770;2023-07-30T09:45:23;98678.41;;;24.38;50.61
63096;BME280;49184;55.596;37.770;2023-07-30T09:47:52;98704.25;;;24.46;49.90
63096;BME280;49184;55.596;37.770;2023-07-30T09:50:18;98692.53;;;24.24;49.05
63096;BME280;49184;55.596;37.770;2023-07-30T09:52:45;98681.88;;;24.19;48.65
63096;BME280;49184;55.596;37.770;2023-07-30T09:55:11;98668.22;;;24.24;49.32
63096;BME280;49184;55.596;37.770;2023-07-30T09:57:38;98663.50;;;24.48;47.92
63096;BME280;49184;55.596;37.770;2023-07-30T10:00:06;98685.34;;;25.04;47.59
63096;BME280;49184;55.596;37.770;2023-07-30T10:02:39;98713.53;;;25.17;46.93
63096;BME280;49184;55.596;37.770;2023-07-30T10:05:14;98666.81;;;24.90;45.57
63096;BME280;49184;55.596;37.770;2023-07-30T10:08:02;98693.59;;;24.64;45.69
63096;BME280;49184;55.596;37.770;2023-07-30T10:10:30;98695.69;;;24.56;48.43
63096;BME280;49184;55.596;37.770;2023-07-30T10:13:00;98687.09;;;24.71;46.92
63096;BME280;49184;55.596;37.770;2023-07-30T10:15:29;98698.88;;;24.58;45.41
63096;BME280;49184;55.596;37.770;2023-07-30T10:18:01;98696.91;;;24.55;44.60
63096;BME280;49184;55.596;37.770;2023-07-30T10:20:28;98676.72;;;24.13;45.38
63096;BME280;49184;55.596;37.770;2023-07-30T10:22:57;98697.09;;;24.14;45.81
63096;BME280;49184;55.596;37.770;2023-07-30T10:25:41;98713.03;;;24.13;46.45
63096;BME280;49184;55.596;37.770;2023-07-30T10:28:08;98698.78;;;23.74;46.33
63096;BME280;49184;55.596;37.770;2023-07-30T10:30:34;98725.44;;;23.78;46.64
63096;BME280;49184;55.596;37.770;2023-07-30T10:33:10;98722.41;;;23.62;46.37
63096;BME280;49184;55.596;37.770;2023-07-30T10:35:46;98681.88;;;23.50;47.13
63096;BME280;49184;55.596;37.770;2023-07-30T10:38:28;98658.16;;;23.35;46.73
63096;BME280;49184;55.596;37.770;2023-07-30T10:41:09;98684.88;;;23.66;47.10
63096;BME280;49184;55.596;37.770;2023-07-30T10:43:40;98700.03;;;23.69;48.15
63096;BME280;49184;55.596;37.770;2023-07-30T10:46:09;98716.78;;;23.65;46.85
63096;BME280;49184;55.596;37.770;2023-07-30T10:48:37;98657.41;;;22.86;47.29
63096;BME280;49184;55.596;37.770;2023-07-30T10:51:09;98668.19;;;22.80;48.88
63096;BME280;49184;55.596;37.770;2023-07-30T10:53:36;98708.75;;;22.88;49.31
63096;BME280;49184;55.596;37.770;2023-07-30T10:56:04;98688.63;;;22.63;48.91
63096;BME280;49184;55.596;37.770;2023-07-30T10:58:31;98724.38;;;23.24;48.31
63096;BME280;49184;55.596;37.770;2023-07-30T11:00:58;98690.13;;;23.23;48.44
63096;BME280;49184;55.596;37.770;2023-07-30T11:03:27;98714.09;;;23.58;47.09
63096;BME280;49184;55.596;37.770;2023-07-30T11:05:54;98694.63;;;23.51;45.54
63096;BME280;49184;55.596;37.770;2023-07-30T11:08:41;98710.78;;;23.71;45.13
63096;BME280;49184;55.596;37.770;2023-07-30T11:11:11;98692.88;;;23.27;44.98
63096;BME280;49184;55.596;37.770;2023-07-30T11:13:42;98708.69;;;23.40;47.30
63096;BME280;49184;55.596;37.770;2023-07-30T11:16:09;98707.44;;;23.45;48.55
63096;BME280;49184;55.596;37.770;2023-07-30T11:18:37;98727.34;;;23.47;48.33
63096;BME280;49184;55.596;37.770;2023-07-30T11:23:38;98667.31;;;23.35;46.64
63096;BME280;49184;55.596;37.770;2023-07-30T11:26:07;98730.91;;;23.89;44.43
63096;BME280;49184;55.596;37.770;2023-07-30T11:28:38;98660.81;;;23.45;43.79
63096;BME280;49184;55.596;37.770;2023-07-30T11:33:32;98724.88;;;24.25;47.45
63096;BME280;49184;55.596;37.770;2023-07-30T11:36:01;98664.47;;;24.07;42.72
63096;BME280;49184;55.596;37.770;2023-07-30T11:38:30;98682.81;;;24.35;46.60
63096;BME280;49184;55.596;37.770;2023-07-30T11:40:58;98695.97;;;24.66;45.34
63096;BME280;49184;55.596;37.770;2023-07-30T11:43:25;98691.94;;;24.67;45.23
63096;BME280;49184;55.596;37.770;2023-07-30T11:48:33;98652.72;;;24.20;46.44
63096;BME280;49184;55.596;37.770;2023-07-30T11:51:01;98682.13;;;24.28;44.84
63096;BME280;49184;55.596;37.770;2023-07-30T11:53:45;98717.47;;;24.42;45.63
63096;BME280;49184;55.596;37.770;2023-07-30T11:56:31;98662.09;;;24.06;44.80
63096;BME280;49184;55.596;37.770;2023-07-30T11:59:07;98691.06;;;24.46;46.56
63096;BME280;49184;55.596;37.770;2023-07-30T12:01:35;98656.09;;;24.34;45.25
63096;BME280;49184;55.596;37.770;2023-07-30T12:04:04;98691.72;;;24.81;46.54
63096;BME280;49184;55.596;37.770;2023-07-30T12:06:46;98728.69;;;24.92;44.51
63096;BME280;49184;55.596;37.770;2023-07-30T12:09:17;98704.31;;;24.93;45.89
63096;BME280;49184;55.596;37.770;2023-07-30T12:11:55;98680.19;;;24.79;45.08
63096;BME280;49184;55.596;37.770;2023-07-30T12:14:26;98656.50;;;24.64;43.19
63096;BME280;49184;55.596;37.770;2023-07-30T12:17:15;98710.53;;;25.27;44.72
63096;BME280;49184;55.596;37.770;2023-07-30T12:19:41;98684.00;;;25.36;40.09
63096;BME280;49184;55.596;37.770;2023-07-30T12:22:08;98693.94;;;25.40;41.08
63096;BME280;49184;55.596;37.770;2023-07-30T12:24:33;98722.94;;;25.70;42.96
63096;BME280;49184;55.596;37.770;2023-07-30T12:26:59;98723.91;;;25.83;42.99
63096;BME280;49184;55.596;37.770;2023-07-30T12:29:26;98709.69;;;25.94;42.91
63096;BME280;49184;55.596;37.770;2023-07-30T12:31:53;98700.91;;;26.12;41.90
63096;BME280;49184;55.596;37.770;2023-07-30T12:34:22;98705.16;;;26.20;41.27
63096;BME280;49184;55.596;37.770;2023-07-30T12:36:50;98712.47;;;26.14;40.63
63096;BME280;49184;55.596;37.770;2023-07-30T12:39:16;98688.13;;;26.11;40.65
63096;BME280;49184;55.596;37.770;2023-07-30T12:41:43;98708.56;;;26.47;38.99
63096;BME280;49184;55.596;37.770;2023-07-30T12:44:09;98701.50;;;26.03;39.22
63096;BME280;49184;55.596;37.770;2023-07-30T12:46:35;98690.84;;;26.14;40.71
63096;BME280;49184;55.596;37.770;2023-07-30T12:49:01;98693.66;;;26.14;39.19
63096;BME280;49184;55.596;37.770;2023-07-30T12:51:33;98701.94;;;26.01;39.48
63096;BME280;49184;55.596;37.770;2023-07-30T12:53:59;98683.06;;;26.22;40.06
63096;BME280;49184;55.596;37.770;2023-07-30T12:56:26;98701.75;;;26.65;39.20
63096;BME280;49184;55.596;37.770;2023-07-30T12:58:52;98696.84;;;26.69;39.97
63096;BME280;49184;55.596;37.770;2023-07-30T13:01:19;98683.63;;;26.86;39.85
63096;BME280;49184;55.596;37.770;2023-07-30T13:03:45;98677.81;;;27.09;40.31
63096;BME280;49184;55.596;37.770;2023-07-30T13:06:12;98696.50;;;27.32;39.13